Time;durP1;ratioP1;P1;durP2;ratioP2;P2;SDS_P1;SDS_P2;PMS_P1;PMS_P2;Temp;Humidity;BMP_temperature;BMP_pressure;BME280_temperature;BME280_humidity;BME280_pressure;Samples;Min_cycle;Max_cycle;Signal;HPM_P1;HPM_P2
2023/09/08 00:01:33;;;;;;;0.10;0.10;;;;;;;;;;5096575;28;20143;-42
2023/09/08 00:03:59;;;;;;;0.10;0.10;;;;;;;;;;5095997;28;20100;-43
2023/09/08 00:06:24;;;;;;;0.10;0.10;;;;;;;;;;5095948;28;20138;-43
2023/09/08 00:08:50;;;;;;;0.35;0.20;;;;;;;;;;5094229;28;20131;-45
2023/09/08 00:11:17;;;;;;;0.10;0.10;;;;;;;;;;5102320;28;20111;-46
2023/09/08 00:13:42;;;;;;;0.25;0.20;;;;;;;;;;5111702;28;20043;-44
2023/09/08 00:16:09;;;;;;;0.10;0.10;;;;;;;;;;5112715;28;20043;-43
2023/09/08 00:18:35;;;;;;;0.10;0.10;;;;;;;;;;5095744;28;20134;-42
2023/09/08 00:21:01;;;;;;;0.10;0.10;;;;;;;;;;5095822;28;20255;-44
2023/09/08 00:23:28;;;;;;;0.10;0.10;;;;;;;;;;5096112;28;20040;-44
2023/09/08 00:25:53;;;;;;;0.10;0.10;;;;;;;;;;5095222;28;20078;-44
2023/09/08 00:28:19;;;;;;;0.10;0.10;;;;;;;;;;5095214;28;20116;-46
2023/09/08 00:30:44;;;;;;;0.10;0.10;;;;;;;;;;5096171;28;20058;-46
2023/09/08 00:33:12;;;;;;;0.20;0.20;;;;;;;;;;5095529;28;20047;-43
2023/09/08 00:35:38;;;;;;;0.10;0.10;;;;;;;;;;5094115;28;20440;-46
2023/09/08 00:38:04;;;;;;;0.10;0.10;;;;;;;;;;5087736;28;20051;-43
2023/09/08 00:40:30;;;;;;;0.10;0.10;;;;;;;;;;5081796;28;20056;-45
2023/09/08 00:42:55;;;;;;;0.10;0.10;;;;;;;;;;5095161;28;20104;-46
2023/09/08 00:45:21;;;;;;;0.10;0.10;;;;;;;;;;5094970;28;20051;-47
2023/09/08 00:47:47;;;;;;;0.13;0.13;;;;;;;;;;5094837;28;20307;-43
2023/09/08 00:50:12;;;;;;;0.10;0.10;;;;;;;;;;5095869;28;20047;-45
2023/09/08 00:52:38;;;;;;;0.10;0.10;;;;;;;;;;5095443;28;20050;-43
2023/09/08 00:55:04;;;;;;;0.10;0.10;;;;;;;;;;5095662;28;20063;-44
2023/09/08 00:57:30;;;;;;;0.10;0.10;;;;;;;;;;5092440;28;20036;-45
2023/09/08 00:59:55;;;;;;;0.10;0.10;;;;;;;;;;5075517;28;20048;-44
2023/09/08 01:02:22;;;;;;;0.17;0.17;;;;;;;;;;5075636;28;20101;-46
2023/09/08 01:04:47;;;;;;;0.10;0.10;;;;;;;;;;5075254;28;20131;-44
2023/09/08 01:07:14;;;;;;;0.10;0.10;;;;;;;;;;5085847;28;20314;-44
2023/09/08 01:09:40;;;;;;;0.10;0.10;;;;;;;;;;5089525;28;20090;-44
2023/09/08 01:12:06;;;;;;;0.10;0.10;;;;;;;;;;5106314;28;20537;-44
2023/09/08 01:14:32;;;;;;;0.10;0.10;;;;;;;;;;5116236;28;20066;-46
2023/09/08 01:16:57;;;;;;;0.10;0.10;;;;;;;;;;5106388;28;20148;-43
2023/09/08 01:19:23;;;;;;;0.10;0.10;;;;;;;;;;5095648;28;20048;-45
2023/09/08 01:22:08;;;;;;;0.10;0.10;;;;;;;;;;5096139;28;20443;-45
2023/09/08 01:24:54;;;;;;;0.10;0.10;;;;;;;;;;5080251;28;20067;-42
2023/09/08 01:27:21;;;;;;;0.10;0.10;;;;;;;;;;5079324;28;20047;-46
2023/09/08 01:29:47;;;;;;;0.10;0.10;;;;;;;;;;5096042;28;20093;-45
2023/09/08 01:32:12;;;;;;;0.10;0.10;;;;;;;;;;5095783;28;20047;-43
2023/09/08 01:34:40;;;;;;;0.10;0.10;;;;;;;;;;5094342;28;20047;-42
2023/09/08 01:37:06;;;;;;;0.10;0.10;;;;;;;;;;5093503;28;20476;-46
2023/09/08 01:39:32;;;;;;;0.10;0.10;;;;;;;;;;5083788;28;20531;-43
2023/09/08 01:41:57;;;;;;;0.10;0.10;;;;;;;;;;5094324;28;20255;-43
2023/09/08 01:44:23;;;;;;;0.10;0.10;;;;;;;;;;5094101;28;20047;-44
2023/09/08 01:46:51;;;;;;;0.10;0.10;;;;;;;;;;5094691;28;20448;-46
2023/09/08 01:49:16;;;;;;;0.10;0.10;;;;;;;;;;5094615;28;20058;-46
2023/09/08 01:51:42;;;;;;;0.10;0.10;;;;;;;;;;5095040;28;20076;-46
2023/09/08 01:54:07;;;;;;;0.10;0.10;;;;;;;;;;5094282;28;20416;-44
2023/09/08 01:56:33;;;;;;;0.17;0.17;;;;;;;;;;5094131;28;20561;-42
2023/09/08 01:58:59;;;;;;;0.10;0.10;;;;;;;;;;5094031;28;20096;-45
2023/09/08 02:01:25;;;;;;;0.10;0.10;;;;;;;;;;5094771;28;20134;-44
2023/09/08 02:03:50;;;;;;;0.10;0.10;;;;;;;;;;5093595;28;20252;-44
2023/09/08 02:06:16;;;;;;;0.10;0.10;;;;;;;;;;5093799;28;20547;-44
2023/09/08 02:08:41;;;;;;;0.10;0.10;;;;;;;;;;5085893;28;20043;-42
2023/09/08 02:11:07;;;;;;;0.10;0.10;;;;;;;;;;5104507;28;20119;-45
2023/09/08 02:13:32;;;;;;;0.10;0.10;;;;;;;;;;5115364;28;20059;-45
2023/09/08 02:15:58;;;;;;;0.10;0.10;;;;;;;;;;5115277;28;20046;-45
2023/09/08 02:18:24;;;;;;;0.10;0.10;;;;;;;;;;5087007;28;20452;-42
2023/09/08 02:20:50;;;;;;;0.10;0.10;;;;;;;;;;5075091;28;20966;-46
2023/09/08 02:23:15;;;;;;;0.10;0.10;;;;;;;;;;5074216;28;20383;-44
2023/09/08 02:25:41;;;;;;;0.20;0.20;;;;;;;;;;5074419;28;20146;-44
2023/09/08 02:28:06;;;;;;;0.10;0.10;;;;;;;;;;5088772;28;20411;-44
2023/09/08 02:30:32;;;;;;;0.10;0.10;;;;;;;;;;5094429;28;20142;-43
2023/09/08 02:32:58;;;;;;;0.10;0.10;;;;;;;;;;5094492;28;20184;-44
2023/09/08 02:35:23;;;;;;;0.10;0.10;;;;;;;;;;5094097;28;20047;-53
2023/09/08 02:37:49;;;;;;;0.10;0.10;;;;;;;;;;5093163;28;20595;-54
2023/09/08 02:40:15;;;;;;;0.10;0.10;;;;;;;;;;5093051;28;20347;-54
2023/09/08 02:42:40;;;;;;;0.10;0.10;;;;;;;;;;5094332;28;20047;-54
2023/09/08 02:45:06;;;;;;;0.10;0.10;;;;;;;;;;5093199;28;20050;-53
2023/09/08 02:47:31;;;;;;;0.10;0.10;;;;;;;;;;5090779;28;20047;-53
2023/09/08 02:49:57;;;;;;;0.10;0.10;;;;;;;;;;5074668;28;20067;-45
2023/09/08 02:52:23;;;;;;;0.10;0.10;;;;;;;;;;5073420;28;20642;-44
2023/09/08 02:54:48;;;;;;;0.10;0.10;;;;;;;;;;5073308;28;20044;-43
2023/09/08 02:57:14;;;;;;;0.13;0.13;;;;;;;;;;5080419;28;20044;-43
2023/09/08 02:59:39;;;;;;;0.10;0.10;;;;;;;;;;5082165;28;20058;-42
2023/09/08 03:02:05;;;;;;;0.10;0.10;;;;;;;;;;5094373;28;20051;-42
2023/09/08 03:04:30;;;;;;;0.10;0.10;;;;;;;;;;5093332;28;20048;-46
2023/09/08 03:06:56;;;;;;;0.10;0.10;;;;;;;;;;5092391;28;20531;-43
2023/09/08 03:09:22;;;;;;;0.10;0.10;;;;;;;;;;5075936;28;20424;-43
2023/09/08 03:11:47;;;;;;;0.10;0.10;;;;;;;;;;5073035;28;20736;-43
2023/09/08 03:14:13;;;;;;;0.10;0.10;;;;;;;;;;5072768;28;20048;-43
2023/09/08 03:16:38;;;;;;;0.10;0.10;;;;;;;;;;5076434;28;20282;-44
2023/09/08 03:19:04;;;;;;;0.10;0.10;;;;;;;;;;5080747;28;20044;-47
2023/09/08 03:21:29;;;;;;;0.10;0.10;;;;;;;;;;5076710;28;20052;-43
2023/09/08 03:23:55;;;;;;;0.10;0.10;;;;;;;;;;5076712;28;20495;-45
2023/09/08 03:26:20;;;;;;;0.10;0.10;;;;;;;;;;5076456;28;20436;-45
2023/09/08 03:28:46;;;;;;;0.10;0.10;;;;;;;;;;5082365;28;20078;-42
2023/09/08 03:31:11;;;;;;;0.10;0.10;;;;;;;;;;5077311;28;20058;-46
2023/09/08 03:33:37;;;;;;;0.10;0.10;;;;;;;;;;5077176;28;20044;-44
2023/09/08 03:36:03;;;;;;;0.10;0.10;;;;;;;;;;5076056;28;20058;-45
2023/09/08 03:38:29;;;;;;;0.10;0.10;;;;;;;;;;5089986;28;20047;-45
2023/09/08 03:40:54;;;;;;;0.10;0.10;;;;;;;;;;5095986;28;20560;-43
2023/09/08 03:43:20;;;;;;;0.10;0.10;;;;;;;;;;5095964;28;20047;-44
2023/09/08 03:45:47;;;;;;;0.10;0.10;;;;;;;;;;5095756;28;20059;-45
2023/09/08 03:48:12;;;;;;;0.10;0.10;;;;;;;;;;5096003;28;20079;-44
2023/09/08 03:50:38;;;;;;;0.10;0.10;;;;;;;;;;5096853;28;20490;-45
2023/09/08 03:53:03;;;;;;;0.10;0.10;;;;;;;;;;5096717;28;20496;-46
2023/09/08 03:55:29;;;;;;;0.10;0.10;;;;;;;;;;5096532;28;20055;-44
2023/09/08 03:57:55;;;;;;;0.10;0.10;;;;;;;;;;5090659;28;20071;-45
2023/09/08 04:00:22;;;;;;;0.10;0.10;;;;;;;;;;5076216;28;20059;-45
2023/09/08 04:02:48;;;;;;;0.10;0.10;;;;;;;;;;5094782;28;20086;-47
2023/09/08 04:05:14;;;;;;;0.10;0.10;;;;;;;;;;5096407;28;20428;-46
2023/09/08 04:07:40;;;;;;;0.10;0.10;;;;;;;;;;5087350;28;20524;-42
2023/09/08 04:10:06;;;;;;;0.10;0.10;;;;;;;;;;5076871;28;20502;-46
2023/09/08 04:12:31;;;;;;;0.10;0.10;;;;;;;;;;5076477;28;20131;-42
2023/09/08 04:14:57;;;;;;;0.10;0.10;;;;;;;;;;5076798;28;20048;-46
2023/09/08 04:17:22;;;;;;;0.10;0.10;;;;;;;;;;5081552;28;20070;-42
2023/09/08 04:19:48;;;;;;;0.10;0.10;;;;;;;;;;5097315;28;20130;-46
2023/09/08 04:22:13;;;;;;;0.10;0.10;;;;;;;;;;5096895;28;20148;-48
2023/09/08 04:24:39;;;;;;;0.10;0.10;;;;;;;;;;5095974;28;20058;-47
2023/09/08 04:27:04;;;;;;;0.10;0.10;;;;;;;;;;5095072;28;20056;-44
2023/09/08 04:29:30;;;;;;;0.10;0.10;;;;;;;;;;5096225;28;20135;-46
2023/09/08 04:31:55;;;;;;;0.10;0.10;;;;;;;;;;5096783;28;20179;-44
2023/09/08 04:34:21;;;;;;;0.10;0.10;;;;;;;;;;5096218;28;20325;-47
2023/09/08 04:36:46;;;;;;;0.10;0.10;;;;;;;;;;5095973;28;20097;-46
2023/09/08 04:39:12;;;;;;;0.10;0.10;;;;;;;;;;5095633;28;20112;-44
2023/09/08 04:41:38;;;;;;;0.10;0.10;;;;;;;;;;5095644;28;20510;-45
2023/09/08 04:44:04;;;;;;;0.10;0.10;;;;;;;;;;5093646;28;20044;-43
2023/09/08 04:46:30;;;;;;;0.10;0.10;;;;;;;;;;5095635;28;20492;-43
2023/09/08 04:48:55;;;;;;;0.10;0.10;;;;;;;;;;5093665;28;20039;-45
2023/09/08 04:51:21;;;;;;;0.10;0.10;;;;;;;;;;5096377;28;20086;-43
2023/09/08 04:53:47;;;;;;;0.10;0.10;;;;;;;;;;5096228;28;20043;-43
2023/09/08 04:56:13;;;;;;;0.10;0.10;;;;;;;;;;5095034;28;20055;-43
2023/09/08 04:58:38;;;;;;;0.10;0.10;;;;;;;;;;5083980;28;20086;-46
2023/09/08 05:01:05;;;;;;;0.10;0.10;;;;;;;;;;5075474;28;20040;-44
2023/09/08 05:03:31;;;;;;;0.10;0.10;;;;;;;;;;5086414;28;20152;-44
2023/09/08 05:05:57;;;;;;;0.15;0.15;;;;;;;;;;5083428;28;20048;-43
2023/09/08 05:08:22;;;;;;;0.20;0.20;;;;;;;;;;5084848;28;20098;-43
2023/09/08 05:10:48;;;;;;;0.10;0.10;;;;;;;;;;5075603;28;20048;-47
2023/09/08 05:13:15;;;;;;;0.10;0.10;;;;;;;;;;5075594;28;20048;-44
2023/09/08 05:16:11;;;;;;;0.10;0.10;;;;;;;;;;5075712;28;20040;-45
2023/09/08 05:18:38;;;;;;;0.10;0.10;;;;;;;;;;5089156;28;20688;-44
2023/09/08 05:21:04;;;;;;;0.10;0.10;;;;;;;;;;5096073;28;20333;-43
2023/09/08 05:23:29;;;;;;;0.60;0.20;;;;;;;;;;5095670;28;20421;-46
2023/09/08 05:25:55;;;;;;;0.10;0.10;;;;;;;;;;5095920;28;20086;-47
2023/09/08 05:28:20;;;;;;;0.20;0.20;;;;;;;;;;5084923;28;20043;-46
2023/09/08 05:30:46;;;;;;;0.10;0.10;;;;;;;;;;5074094;28;20083;-46
2023/09/08 05:33:11;;;;;;;0.17;0.17;;;;;;;;;;5081410;28;20058;-45
2023/09/08 05:35:37;;;;;;;0.10;0.10;;;;;;;;;;5086714;28;20147;-44
2023/09/08 05:38:03;;;;;;;0.10;0.10;;;;;;;;;;5086876;28;20047;-49
2023/09/08 05:40:29;;;;;;;0.10;0.10;;;;;;;;;;5074392;28;20056;-46
2023/09/08 05:42:54;;;;;;;0.10;0.10;;;;;;;;;;5090302;28;20050;-43
2023/09/08 05:45:20;;;;;;;0.10;0.10;;;;;;;;;;5086923;28;20407;-44
2023/09/08 05:47:45;;;;;;;0.10;0.10;;;;;;;;;;5078960;28;20415;-45
2023/09/08 05:50:11;;;;;;;0.20;0.20;;;;;;;;;;5085090;28;20468;-44
2023/09/08 05:52:36;;;;;;;0.10;0.10;;;;;;;;;;5079595;28;20040;-46
2023/09/08 05:55:02;;;;;;;0.10;0.10;;;;;;;;;;5073625;28;20040;-45
2023/09/08 05:57:29;;;;;;;0.10;0.10;;;;;;;;;;5078161;28;20094;-43
2023/09/08 05:59:55;;;;;;;0.30;0.30;;;;;;;;;;5067622;28;20051;-47
2023/09/08 06:02:21;;;;;;;0.10;0.10;;;;;;;;;;5058006;28;20406;-46
2023/09/08 06:04:46;;;;;;;0.10;0.10;;;;;;;;;;5070866;28;20124;-45
2023/09/08 06:07:12;;;;;;;0.10;0.10;;;;;;;;;;5061928;28;20614;-45
2023/09/08 06:09:37;;;;;;;0.20;0.20;;;;;;;;;;5074140;28;20054;-44
2023/09/08 06:12:03;;;;;;;0.10;0.10;;;;;;;;;;5068614;28;20721;-44
2023/09/08 06:14:29;;;;;;;0.10;0.10;;;;;;;;;;5073072;28;20047;-45
2023/09/08 06:16:54;;;;;;;0.10;0.10;;;;;;;;;;5074949;28;20079;-44
2023/09/08 06:19:20;;;;;;;0.10;0.10;;;;;;;;;;5079475;28;20055;-44
2023/09/08 06:21:46;;;;;;;0.17;0.17;;;;;;;;;;5069602;28;20052;-45
2023/09/08 06:24:11;;;;;;;0.10;0.10;;;;;;;;;;5070924;28;20054;-42
2023/09/08 06:26:37;;;;;;;0.10;0.10;;;;;;;;;;5081220;28;20051;-44
2023/09/08 06:29:03;;;;;;;0.20;0.20;;;;;;;;;;5082913;28;20055;-47
2023/09/08 06:31:28;;;;;;;0.10;0.10;;;;;;;;;;5078588;28;20223;-43
2023/09/08 06:33:54;;;;;;;0.10;0.10;;;;;;;;;;5078026;28;20149;-43
2023/09/08 06:36:19;;;;;;;0.10;0.10;;;;;;;;;;5077010;28;20047;-43
2023/09/08 06:38:45;;;;;;;0.10;0.10;;;;;;;;;;5075730;28;20079;-46
2023/09/08 06:41:11;;;;;;;0.10;0.10;;;;;;;;;;5072514;28;20042;-44
2023/09/08 06:43:37;;;;;;;0.28;0.28;;;;;;;;;;5072690;28;20043;-44
2023/09/08 06:46:02;;;;;;;0.10;0.10;;;;;;;;;;5065882;28;20052;-43
2023/09/08 06:48:28;;;;;;;0.10;0.10;;;;;;;;;;5065225;28;20078;-48
2023/09/08 06:50:56;;;;;;;0.10;0.10;;;;;;;;;;5063482;28;20154;-46
2023/09/08 06:53:22;;;;;;;0.10;0.10;;;;;;;;;;5060092;28;20439;-44
2023/09/08 06:55:48;;;;;;;0.10;0.10;;;;;;;;;;5060644;28;20481;-44
2023/09/08 06:58:14;;;;;;;0.17;0.17;;;;;;;;;;5054989;28;20051;-43
2023/09/08 07:00:40;;;;;;;0.10;0.10;;;;;;;;;;5052960;28;20071;-46
2023/09/08 07:03:07;;;;;;;0.25;0.25;;;;;;;;;;5061746;28;20120;-44
2023/09/08 07:05:34;;;;;;;0.20;0.20;;;;;;;;;;5050200;28;20052;-44
2023/09/08 07:07:59;;;;;;;0.10;0.10;;;;;;;;;;5046844;28;20054;-43
2023/09/08 07:10:25;;;;;;;0.10;0.10;;;;;;;;;;5063501;28;20093;-44
2023/09/08 07:12:51;;;;;;;0.10;0.10;;;;;;;;;;5071572;28;20376;-44
2023/09/08 07:15:16;;;;;;;0.10;0.10;;;;;;;;;;5062284;28;20136;-43
2023/09/08 07:17:42;;;;;;;0.10;0.10;;;;;;;;;;5060820;28;20048;-44
2023/09/08 07:20:08;;;;;;;0.20;0.20;;;;;;;;;;5057362;28;20050;-45
2023/09/08 07:22:33;;;;;;;0.10;0.10;;;;;;;;;;5064003;28;20120;-45
2023/09/08 07:24:59;;;;;;;0.10;0.10;;;;;;;;;;5068244;28;20069;-45
2023/09/08 07:27:24;;;;;;;0.10;0.10;;;;;;;;;;5070162;28;20052;-45
2023/09/08 07:29:50;;;;;;;0.10;0.10;;;;;;;;;;5070301;28;20152;-48
2023/09/08 07:32:16;;;;;;;0.10;0.10;;;;;;;;;;5069654;28;20389;-44
2023/09/08 07:34:42;;;;;;;0.10;0.10;;;;;;;;;;5068594;28;20054;-45
2023/09/08 07:37:07;;;;;;;0.35;0.20;;;;;;;;;;5077304;28;20159;-45
2023/09/08 07:39:34;;;;;;;0.10;0.10;;;;;;;;;;5065110;28;20100;-45
2023/09/08 07:42:00;;;;;;;0.10;0.10;;;;;;;;;;5067745;28;20039;-46
2023/09/08 07:44:27;;;;;;;0.10;0.10;;;;;;;;;;5072354;28;20052;-43
2023/09/08 07:46:55;;;;;;;0.20;0.20;;;;;;;;;;5071389;28;20431;-42
2023/09/08 07:49:20;;;;;;;0.10;0.10;;;;;;;;;;5065626;28;20109;-43
2023/09/08 07:51:46;;;;;;;0.10;0.10;;;;;;;;;;5059762;28;20727;-46
2023/09/08 07:54:12;;;;;;;0.13;0.13;;;;;;;;;;5067208;28;20062;-45
2023/09/08 07:56:38;;;;;;;0.25;0.25;;;;;;;;;;5068592;28;20048;-43
2023/09/08 07:59:03;;;;;;;0.10;0.10;;;;;;;;;;5066069;28;20055;-43
2023/09/08 08:01:29;;;;;;;0.10;0.10;;;;;;;;;;5066871;28;20415;-49
2023/09/08 08:03:54;;;;;;;0.10;0.10;;;;;;;;;;5064089;28;20077;-43
2023/09/08 08:06:20;;;;;;;0.10;0.10;;;;;;;;;;5053255;28;20064;-42
2023/09/08 08:08:46;;;;;;;0.10;0.10;;;;;;;;;;5065231;28;20060;-43
2023/09/08 08:11:12;;;;;;;0.10;0.10;;;;;;;;;;5069079;28;20047;-42
2023/09/08 08:13:38;;;;;;;0.10;0.10;;;;;;;;;;5063939;28;20055;-42
2023/09/08 08:16:03;;;;;;;0.10;0.10;;;;;;;;;;5059966;28;20044;-44
2023/09/08 08:18:29;;;;;;;0.10;0.10;;;;;;;;;;5068245;28;20377;-46
2023/09/08 08:20:54;;;;;;;0.10;0.10;;;;;;;;;;5067426;28;20095;-47
2023/09/08 08:23:20;;;;;;;0.10;0.10;;;;;;;;;;5073950;28;20394;-43
2023/09/08 08:25:46;;;;;;;0.10;0.10;;;;;;;;;;5069284;28;20524;-44
2023/09/08 08:28:11;;;;;;;0.10;0.10;;;;;;;;;;5068737;28;20479;-44
2023/09/08 08:30:37;;;;;;;0.10;0.10;;;;;;;;;;5074000;28;20074;-44
2023/09/08 08:33:04;;;;;;;0.10;0.10;;;;;;;;;;5060570;28;20232;-43
2023/09/08 08:35:29;;;;;;;0.15;0.15;;;;;;;;;;5066650;28;20036;-43
2023/09/08 08:37:57;;;;;;;0.10;0.10;;;;;;;;;;5068314;28;20523;-45
2023/09/08 08:40:26;;;;;;;0.10;0.10;;;;;;;;;;5068810;28;20937;-45
2023/09/08 08:42:56;;;;;;;0.10;0.10;;;;;;;;;;5059050;28;20044;-45
2023/09/08 08:45:22;;;;;;;0.10;0.10;;;;;;;;;;5076102;28;20048;-42
2023/09/08 08:47:48;;;;;;;0.17;0.17;;;;;;;;;;5078853;28;20047;-46
2023/09/08 08:50:14;;;;;;;0.10;0.10;;;;;;;;;;5079576;28;20374;-45
2023/09/08 08:52:40;;;;;;;0.10;0.10;;;;;;;;;;5078431;28;20428;-43
2023/09/08 08:55:06;;;;;;;0.17;0.17;;;;;;;;;;5079057;28;20081;-44
2023/09/08 08:57:32;;;;;;;0.38;0.25;;;;;;;;;;5058104;28;20040;-44
2023/09/08 08:59:58;;;;;;;0.10;0.10;;;;;;;;;;5082771;28;20050;-45
2023/09/08 09:02:25;;;;;;;0.10;0.10;;;;;;;;;;5076434;28;20086;-43
2023/09/08 09:04:50;;;;;;;0.10;0.10;;;;;;;;;;5074624;28;20062;-46
2023/09/08 09:07:18;;;;;;;0.10;0.10;;;;;;;;;;5080983;28;20427;-46
2023/09/08 09:09:43;;;;;;;0.10;0.10;;;;;;;;;;5083513;28;20071;-45
2023/09/08 09:12:09;;;;;;;0.10;0.10;;;;;;;;;;5088717;28;20044;-42
2023/09/08 09:14:35;;;;;;;0.10;0.10;;;;;;;;;;5074143;28;20159;-45
2023/09/08 09:17:01;;;;;;;0.10;0.10;;;;;;;;;;5075937;28;20043;-42
2023/09/08 09:19:28;;;;;;;0.10;0.10;;;;;;;;;;5077240;28;20193;-45
2023/09/08 09:21:55;;;;;;;0.10;0.10;;;;;;;;;;5080402;28;20397;-50
2023/09/08 09:24:40;;;;;;;0.10;0.10;;;;;;;;;;5076691;28;20150;-42
2023/09/08 09:27:06;;;;;;;0.10;0.10;;;;;;;;;;5074700;28;20414;-53
2023/09/08 09:29:34;;;;;;;0.13;0.10;;;;;;;;;;5073778;28;20048;-45
2023/09/08 09:32:08;;;;;;;0.10;0.10;;;;;;;;;;5074661;28;20044;-45
2023/09/08 09:34:34;;;;;;;0.10;0.10;;;;;;;;;;5070473;28;20048;-46
2023/09/08 09:37:00;;;;;;;0.10;0.10;;;;;;;;;;5065205;28;20040;-52
2023/09/08 09:39:26;;;;;;;0.10;0.10;;;;;;;;;;5075870;28;20081;-46
2023/09/08 09:41:53;;;;;;;0.10;0.10;;;;;;;;;;5047168;28;20226;-46
2023/09/08 09:44:19;;;;;;;0.20;0.20;;;;;;;;;;5061252;28;20408;-44
2023/09/08 09:46:45;;;;;;;0.10;0.10;;;;;;;;;;5069018;28;20087;-42
2023/09/08 09:49:13;;;;;;;0.10;0.10;;;;;;;;;;5076104;28;20044;-46
2023/09/08 09:51:40;;;;;;;0.10;0.10;;;;;;;;;;5081678;28;20348;-43
2023/09/08 09:54:06;;;;;;;0.10;0.10;;;;;;;;;;5086036;28;20521;-45
2023/09/08 09:56:32;;;;;;;0.10;0.10;;;;;;;;;;5087439;28;20058;-43
2023/09/08 09:58:58;;;;;;;0.10;0.10;;;;;;;;;;5085353;28;20039;-44
2023/09/08 10:01:24;;;;;;;0.20;0.20;;;;;;;;;;5081580;28;20462;-46
2023/09/08 10:03:50;;;;;;;0.20;0.20;;;;;;;;;;5080826;28;20067;-46
2023/09/08 10:06:16;;;;;;;0.10;0.10;;;;;;;;;;5090742;28;20044;-43
2023/09/08 10:08:43;;;;;;;0.10;0.10;;;;;;;;;;5075808;28;20047;-43
2023/09/08 10:11:08;;;;;;;0.10;0.10;;;;;;;;;;5070697;28;20114;-42
2023/09/08 10:13:39;;;;;;;0.10;0.10;;;;;;;;;;5081967;28;20459;-44
2023/09/08 10:16:05;;;;;;;0.10;0.10;;;;;;;;;;5087357;28;20048;-43
2023/09/08 10:18:33;;;;;;;0.10;0.10;;;;;;;;;;5084012;28;20467;-44
2023/09/08 10:21:01;;;;;;;0.10;0.10;;;;;;;;;;5076734;28;20043;-43
2023/09/08 10:23:32;;;;;;;0.10;0.10;;;;;;;;;;5080059;28;20048;-42
2023/09/08 10:25:59;;;;;;;0.20;0.20;;;;;;;;;;5086042;28;20051;-43
2023/09/08 10:28:28;;;;;;;0.20;0.20;;;;;;;;;;5079217;28;20566;-42
2023/09/08 10:30:54;;;;;;;0.10;0.10;;;;;;;;;;5078242;28;20043;-46
2023/09/08 10:33:21;;;;;;;0.10;0.10;;;;;;;;;;5074918;28;20055;-44
2023/09/08 10:35:46;;;;;;;0.10;0.10;;;;;;;;;;5071654;28;20539;-45
2023/09/08 10:38:21;;;;;;;0.10;0.10;;;;;;;;;;5072623;28;20374;-44
2023/09/08 10:40:46;;;;;;;0.10;0.10;;;;;;;;;;5057095;28;20044;-42
2023/09/08 10:43:12;;;;;;;0.10;0.10;;;;;;;;;;5065857;28;20510;-44
2023/09/08 10:45:39;;;;;;;0.10;0.10;;;;;;;;;;5062868;28;20190;-42
2023/09/08 10:48:05;;;;;;;0.10;0.10;;;;;;;;;;5067333;28;20586;-45
2023/09/08 10:50:33;;;;;;;0.10;0.10;;;;;;;;;;5069050;28;20640;-43
2023/09/08 10:53:15;;;;;;;0.10;0.10;;;;;;;;;;5067846;28;20148;-43
2023/09/08 10:55:42;;;;;;;0.20;0.20;;;;;;;;;;5064484;28;20539;-43
2023/09/08 10:58:10;;;;;;;0.15;0.15;;;;;;;;;;5063149;28;20043;-42
2023/09/08 11:00:43;;;;;;;0.10;0.10;;;;;;;;;;5072686;28;20419;-43
2023/09/08 11:03:09;;;;;;;0.10;0.10;;;;;;;;;;5076766;28;20040;-43
2023/09/08 11:05:35;;;;;;;0.15;0.15;;;;;;;;;;5082069;28;20465;-45
2023/09/08 11:08:01;;;;;;;0.10;0.10;;;;;;;;;;5073752;28;20086;-45
2023/09/08 11:10:27;;;;;;;0.10;0.10;;;;;;;;;;5082721;28;20103;-44
2023/09/08 11:12:53;;;;;;;0.10;0.10;;;;;;;;;;5086021;28;20047;-44
2023/09/08 11:15:19;;;;;;;0.10;0.10;;;;;;;;;;5085347;28;20242;-44
2023/09/08 11:17:45;;;;;;;0.10;0.10;;;;;;;;;;5075920;28;20193;-43
2023/09/08 11:20:12;;;;;;;0.10;0.10;;;;;;;;;;5069285;28;20514;-47
2023/09/08 11:22:39;;;;;;;0.30;0.30;;;;;;;;;;5072686;28;20036;-43
2023/09/08 11:25:06;;;;;;;0.10;0.10;;;;;;;;;;5086740;28;20367;-45
2023/09/08 11:27:32;;;;;;;0.10;0.10;;;;;;;;;;5058746;28;20051;-44
2023/09/08 11:29:58;;;;;;;0.10;0.10;;;;;;;;;;5076696;28;20044;-45
2023/09/08 11:32:24;;;;;;;0.10;0.10;;;;;;;;;;5073956;28;20036;-44
2023/09/08 11:34:50;;;;;;;0.13;0.13;;;;;;;;;;5067723;28;20187;-41
2023/09/08 11:37:17;;;;;;;0.10;0.10;;;;;;;;;;5070666;28;20063;-44
2023/09/08 11:39:44;;;;;;;0.10;0.10;;;;;;;;;;5070148;28;20551;-42
2023/09/08 11:42:12;;;;;;;0.10;0.10;;;;;;;;;;5052949;28;20057;-44
2023/09/08 11:44:37;;;;;;;0.10;0.10;;;;;;;;;;5070940;28;20234;-43
2023/09/08 11:47:03;;;;;;;0.10;0.10;;;;;;;;;;5072139;28;20069;-44
2023/09/08 11:49:37;;;;;;;0.13;0.13;;;;;;;;;;5069736;28;20571;-46
2023/09/08 11:52:03;;;;;;;0.10;0.10;;;;;;;;;;5087014;28;20416;-45
2023/09/08 11:54:31;;;;;;;0.10;0.10;;;;;;;;;;5071425;28;20584;-44
2023/09/08 11:56:57;;;;;;;0.10;0.10;;;;;;;;;;5074063;28;20067;-43
2023/09/08 11:59:23;;;;;;;0.10;0.10;;;;;;;;;;5068976;28;20063;-46
2023/09/08 12:01:48;;;;;;;0.10;0.10;;;;;;;;;;5070159;28;20390;-46
2023/09/08 12:04:19;;;;;;;0.17;0.17;;;;;;;;;;5093642;28;20055;-46
2023/09/08 12:06:45;;;;;;;0.10;0.10;;;;;;;;;;5070492;28;20519;-44
2023/09/08 12:09:11;;;;;;;0.28;0.28;;;;;;;;;;5060171;28;20102;-44
2023/09/08 12:11:41;;;;;;;0.10;0.10;;;;;;;;;;5080001;28;20558;-47
2023/09/08 12:14:08;;;;;;;0.10;0.10;;;;;;;;;;5087276;28;20087;-44
2023/09/08 12:16:33;;;;;;;0.10;0.10;;;;;;;;;;5076683;28;20051;-43
2023/09/08 12:18:59;;;;;;;0.10;0.10;;;;;;;;;;5082516;28;20039;-47
2023/09/08 12:21:25;;;;;;;0.10;0.10;;;;;;;;;;5078139;28;20065;-45
2023/09/08 12:23:51;;;;;;;0.10;0.10;;;;;;;;;;5074748;28;20048;-44
2023/09/08 12:26:17;;;;;;;0.20;0.20;;;;;;;;;;5075103;28;20036;-44
2023/09/08 12:28:43;;;;;;;0.10;0.10;;;;;;;;;;5094567;28;20154;-53
2023/09/08 12:31:09;;;;;;;0.15;0.15;;;;;;;;;;5080994;28;20638;-54
2023/09/08 12:33:34;;;;;;;0.10;0.10;;;;;;;;;;5082384;28;20401;-54
2023/09/08 12:36:09;;;;;;;0.10;0.10;;;;;;;;;;5087603;28;20050;-47
2023/09/08 12:38:34;;;;;;;0.10;0.10;;;;;;;;;;5089941;28;20432;-48
2023/09/08 12:41:00;;;;;;;0.10;0.10;;;;;;;;;;5098178;28;20358;-50
2023/09/08 12:43:26;;;;;;;0.10;0.10;;;;;;;;;;5095677;28;20047;-48
2023/09/08 12:45:56;;;;;;;0.10;0.10;;;;;;;;;;5090953;28;20048;-42
2023/09/08 12:48:22;;;;;;;0.10;0.10;;;;;;;;;;5090365;28;20173;-43
2023/09/08 12:50:49;;;;;;;0.10;0.10;;;;;;;;;;5067534;28;20048;-43
2023/09/08 12:53:15;;;;;;;0.10;0.10;;;;;;;;;;5059080;28;20403;-44
2023/09/08 12:55:40;;;;;;;0.10;0.10;;;;;;;;;;5076902;28;20071;-42
2023/09/08 12:58:06;;;;;;;0.10;0.10;;;;;;;;;;5085203;28;20505;-45
2023/09/08 13:00:31;;;;;;;0.10;0.10;;;;;;;;;;5092728;28;20580;-42
2023/09/08 13:02:57;;;;;;;0.10;0.10;;;;;;;;;;5099290;28;20044;-43
2023/09/08 13:05:22;;;;;;;0.10;0.10;;;;;;;;;;5085611;28;20556;-45
2023/09/08 13:07:48;;;;;;;0.10;0.10;;;;;;;;;;5080513;28;20048;-45
2023/09/08 13:10:14;;;;;;;0.10;0.10;;;;;;;;;;5098904;28;20191;-45
2023/09/08 13:12:40;;;;;;;0.10;0.10;;;;;;;;;;5099059;28;20313;-47
2023/09/08 13:15:06;;;;;;;0.20;0.20;;;;;;;;;;5099300;28;20101;-42
2023/09/08 13:17:32;;;;;;;0.10;0.10;;;;;;;;;;5098263;28;20055;-46
2023/09/08 13:19:58;;;;;;;0.10;0.10;;;;;;;;;;5090283;28;20500;-45
2023/09/08 13:22:23;;;;;;;0.10;0.10;;;;;;;;;;5098727;28;20097;-44
2023/09/08 13:24:49;;;;;;;0.10;0.10;;;;;;;;;;5079873;28;20044;-42
2023/09/08 13:27:17;;;;;;;0.10;0.10;;;;;;;;;;5078336;28;20138;-44
2023/09/08 13:29:42;;;;;;;0.10;0.10;;;;;;;;;;5077078;28;20052;-55
2023/09/08 13:32:08;;;;;;;0.10;0.10;;;;;;;;;;5079055;28;20445;-42
2023/09/08 13:34:35;;;;;;;0.10;0.10;;;;;;;;;;5079006;28;20261;-46
2023/09/08 13:37:02;;;;;;;0.10;0.10;;;;;;;;;;5078583;28;20507;-43
2023/09/08 13:39:28;;;;;;;0.00;0.00;;;;;;;;;;5078454;28;20429;-44
2023/09/08 13:41:54;;;;;;;0.10;0.10;;;;;;;;;;5098004;28;20115;-42
2023/09/08 13:44:20;;;;;;;0.10;0.10;;;;;;;;;;5098676;28;20040;-44
2023/09/08 13:46:46;;;;;;;0.10;0.10;;;;;;;;;;5084425;28;20104;-44
2023/09/08 13:49:12;;;;;;;0.10;0.10;;;;;;;;;;5099423;28;20050;-42
2023/09/08 13:51:38;;;;;;;0.10;0.10;;;;;;;;;;5116658;28;20455;-44
2023/09/08 13:54:04;;;;;;;0.10;0.10;;;;;;;;;;5095860;28;20044;-42
2023/09/08 13:56:33;;;;;;;0.10;0.10;;;;;;;;;;5077462;28;20048;-46
2023/09/08 13:59:01;;;;;;;0.10;0.10;;;;;;;;;;5083670;28;20051;-43
2023/09/08 14:01:29;;;;;;;0.10;0.10;;;;;;;;;;5076598;28;20078;-45
2023/09/08 14:03:57;;;;;;;0.10;0.10;;;;;;;;;;5076630;28;20454;-46
2023/09/08 14:06:27;;;;;;;0.10;0.10;;;;;;;;;;5077299;28;20056;-44
2023/09/08 14:08:57;;;;;;;0.10;0.10;;;;;;;;;;5076897;28;20180;-46
2023/09/08 14:11:26;;;;;;;0.10;0.10;;;;;;;;;;5077209;28;20055;-43
2023/09/08 14:14:11;;;;;;;0.30;0.30;;;;;;;;;;5062628;28;20051;-42
2023/09/08 14:16:37;;;;;;;0.10;0.10;;;;;;;;;;5076142;28;20126;-43
2023/09/08 14:19:02;;;;;;;0.10;0.10;;;;;;;;;;5080394;28;20180;-43
2023/09/08 14:21:28;;;;;;;0.10;0.10;;;;;;;;;;5094708;28;20043;-43
2023/09/08 14:23:56;;;;;;;0.10;0.10;;;;;;;;;;5096016;28;20055;-43
2023/09/08 14:26:21;;;;;;;0.10;0.10;;;;;;;;;;5097980;28;20047;-45
2023/09/08 14:28:47;;;;;;;0.10;0.10;;;;;;;;;;5097622;28;20039;-43
2023/09/08 14:31:12;;;;;;;0.35;0.20;;;;;;;;;;5097542;28;20615;-44
2023/09/08 14:33:38;;;;;;;0.10;0.10;;;;;;;;;;5084573;28;20441;-43
2023/09/08 14:36:04;;;;;;;0.10;0.10;;;;;;;;;;5076927;28;20032;-44
2023/09/08 14:38:29;;;;;;;0.10;0.10;;;;;;;;;;5087210;28;20158;-45